createdAt,value
2022-10-12T00:06:07.171Z,99658.67
2022-10-12T00:16:35.155Z,99659.63
2022-10-12T00:27:02.578Z,99662.44
2022-10-12T00:37:30.293Z,99659.16
2022-10-12T00:48:00.928Z,99658.76
2022-10-12T00:58:31.547Z,99657.41
2022-10-12T01:08:59.676Z,99658.52
2022-10-12T01:19:57.003Z,99664.54
2022-10-12T01:30:27.010Z,99656.73
2022-10-12T01:41:02.166Z,99656.23
2022-10-12T01:51:38.351Z,99654.80
2022-10-12T02:02:15.705Z,99654.56
2022-10-12T02:12:45.236Z,99649.92
2022-10-12T02:23:13.574Z,99650.11
2022-10-12T02:33:47.455Z,99647.98
2022-10-12T02:44:17.513Z,99656.73
2022-10-12T02:54:45.170Z,99669.90
2022-10-12T03:05:12.722Z,99669.52
2022-10-12T03:15:40.459Z,99666.71
2022-10-12T03:26:08.857Z,99662.21
2022-10-12T03:36:36.560Z,99667.68
2022-10-12T03:47:04.048Z,99667.17
2022-10-12T03:57:31.690Z,99669.52
2022-10-12T04:07:59.255Z,99669.42
2022-10-12T04:18:26.895Z,99675.11
2022-10-12T04:28:54.489Z,99680.95
2022-10-12T04:39:22.170Z,99680.22
2022-10-12T04:49:49.848Z,99676.77
2022-10-12T05:00:18.554Z,99685.14
2022-10-12T05:10:47.263Z,99692.89
2022-10-12T05:21:14.892Z,99697.56
2022-10-12T05:31:42.594Z,99697.08
2022-10-12T05:42:10.231Z,99700.20
2022-10-12T05:52:38.082Z,99701.39
2022-10-12T06:03:05.766Z,99704.63
2022-10-12T06:13:33.328Z,99703.57
2022-10-12T06:24:00.974Z,99709.83
2022-10-12T06:34:28.542Z,99715.67
2022-10-12T06:44:56.138Z,99718.86
2022-10-12T06:55:23.802Z,99722.14
2022-10-12T07:05:51.591Z,99724.48
2022-10-12T07:16:19.729Z,99724.41
2022-10-12T07:26:47.389Z,99721.89
2022-10-12T07:37:15.547Z,99717.98
2022-10-12T07:47:43.158Z,99710.77
2022-10-12T07:58:10.958Z,99705.48
2022-10-12T08:08:38.528Z,99706.21
2022-10-12T08:19:06.187Z,99703.70
2022-10-12T08:29:33.890Z,99705.44
2022-10-12T08:40:03.620Z,99699.98
2022-10-12T08:50:39.871Z,99702.30
2022-10-12T09:01:19.909Z,99703.55
2022-10-12T09:12:03.901Z,99698.48
2022-10-12T09:22:32.591Z,99686.16
2022-10-12T09:33:14.526Z,99677.48
2022-10-12T09:43:42.294Z,99679.78
2022-10-12T09:54:18.761Z,99675.58
2022-10-12T10:04:48.007Z,99672.23
2022-10-12T10:15:23.891Z,99669.92
2022-10-12T10:25:59.551Z,99668.35
2022-10-12T10:36:29.482Z,99668.50
2022-10-12T10:46:59.331Z,99661.67
2022-10-12T10:57:27.992Z,99662.30
2022-10-12T11:07:58.049Z,99657.61
2022-10-12T11:18:31.933Z,99647.66
2022-10-12T11:29:01.348Z,99636.10
2022-10-12T11:39:36.082Z,99635.05
2022-10-12T11:50:07.680Z,99614.39
2022-10-12T12:00:49.697Z,99612.27
2022-10-12T12:11:25.452Z,99608.91
2022-10-12T12:22:36.090Z,99605.19
2022-10-12T12:33:06.198Z,99597.25
2022-10-12T12:43:55.048Z,99589.11
2022-10-12T12:54:24.854Z,99580.34
2022-10-12T13:05:18.642Z,99576.96
2022-10-12T13:16:05.641Z,99568.66
2022-10-12T13:26:35.636Z,99563.98
2022-10-12T13:37:06.069Z,99562.29
2022-10-12T13:47:34.747Z,99555.34
2022-10-12T13:58:02.581Z,99553.39
2022-10-12T14:08:30.978Z,99551.05
2022-10-12T14:19:18.723Z,99539.70
2022-10-12T14:29:48.313Z,99534.95
2022-10-12T14:40:31.762Z,99526.46
2022-10-12T14:50:59.316Z,99522.86
2022-10-12T15:01:27.091Z,99521.40
2022-10-12T15:11:54.638Z,99518.55
2022-10-12T15:22:24.523Z,99526.10
2022-10-12T15:32:52.246Z,99525.79
2022-10-12T15:43:20.052Z,99524.90
2022-10-12T15:53:47.686Z,99522.29
2022-10-12T16:04:16.936Z,99534.14
2022-10-12T16:14:44.618Z,99544.44
2022-10-12T16:25:14.378Z,99540.72
2022-10-12T16:35:43.379Z,99538.52
2022-10-12T16:46:11.406Z,99541.84
2022-10-12T16:56:39.894Z,99536.58
2022-10-12T17:07:07.862Z,99542.56
2022-10-12T17:17:35.432Z,99547.14
2022-10-12T17:28:03.058Z,99545.39
2022-10-12T17:38:30.686Z,99545.23
2022-10-12T17:48:59.406Z,99552.85
2022-10-12T17:59:27.289Z,99550.38
2022-10-12T18:09:55.011Z,99552.92
2022-10-12T18:20:22.625Z,99548.84
2022-10-12T18:30:51.993Z,99543.23
2022-10-12T18:41:22.591Z,99548.14
2022-10-12T18:51:51.490Z,99548.81
2022-10-12T19:02:20.905Z,99547.34
2022-10-12T19:12:48.837Z,99549.19
2022-10-12T19:23:17.974Z,99552.10
2022-10-12T19:33:46.055Z,99555.49
2022-10-12T19:44:14.455Z,99551.79
2022-10-12T19:54:40.399Z,99555.30
2022-10-12T20:05:08.689Z,99554.25
2022-10-12T20:15:36.765Z,99552.50
2022-10-12T20:26:08.450Z,99564.11
2022-10-12T20:36:36.012Z,99559.41
2022-10-12T20:47:03.495Z,99555.74
2022-10-12T20:57:31.032Z,99553.25
2022-10-12T21:07:58.687Z,99551.93
2022-10-12T21:18:26.723Z,99543.49
2022-10-12T21:28:54.484Z,99540.57
2022-10-12T21:39:22.251Z,99538.05
2022-10-12T21:49:49.895Z,99540.59
2022-10-12T22:00:18.449Z,99537.14
2022-10-12T22:10:46.566Z,99540.41
2022-10-12T22:21:16.526Z,99539.22
2022-10-12T22:31:45.754Z,99539.11
2022-10-12T22:42:11.804Z,99539.09
2022-10-12T22:52:39.374Z,99533.95
2022-10-12T23:03:07.610Z,99527.17
2022-10-12T23:13:35.711Z,99523.25
2022-10-12T23:24:05.134Z,99515.05
2022-10-12T23:34:32.766Z,99525.96
2022-10-12T23:45:00.420Z,99518.68
2022-10-12T23:55:28.044Z,99520.41
